Latest Weather Observations for Marree Airport

IDS60801

Issued at 5:11 pm CDT Tuesday 6 December 2022 (issued every 10 minutes, with the page automatically refreshed every 10 minutes)

About weather observations | Map of weather stations | Latest weather observations for SA | Other Formats
Station Details ID: 017126 Name: MARREE AERO Lat: -29.66 Lon: 138.07 Height: 50.0 m
Data from the previous 72 hours. | See also: Recent months at Marree Airport
Date/Time
CDT
Temp
°C
App
Temp
°C
Dew
Point
°C
Rel
Hum
%
Delta-T
°C
Wind Press
QNH
hPa
Press
MSL
hPa
Rain since
9am
mm
Dir  Spd
km/h
Gust
km/h
Spd
kts
Gust
kts
06/05:00pm 39.0 35.4 6.7 14 18.2 WNW 15 22 8 12 1002.7 1002.4 0.0
06/04:30pm 39.2 34.7 6.8 14 18.3 NNW 20 33 11 18 1003.2 1002.9 0.0
06/04:00pm 38.6 34.2 7.4 15 17.7 NNE 20 33 11 18 1003.5 1003.2 0.0
06/03:30pm 37.4 32.8 8.2 17 16.7 NNE 22 33 12 18 1004.0 1003.7 0.0
06/03:00pm 37.4 32.4 8.2 17 16.7 NNE 24 39 13 21 1004.6 1004.3 0.0
06/02:30pm 37.1 31.7 8.0 17 16.6 NNE 26 37 14 20 1005.2 1004.9 0.0
06/02:00pm 36.1 31.1 8.0 18 15.9 NE 24 33 13 18 1006.0 1005.7 0.0
06/01:30pm 34.5 29.0 7.5 19 15.0 NE 26 39 14 21 1007.0 1006.7 0.0
06/01:00pm 34.3 29.1 7.4 19 14.9 ENE 24 35 13 19 1007.5 1007.2 0.0
06/12:30pm 33.8 28.5 7.0 19 14.8 ENE 24 37 13 20 1007.8 1007.5 0.0
06/12:00pm 32.5 28.1 7.4 21 13.8 E 20 33 11 18 1009.1 1008.8 0.0
06/11:30am 32.5 26.4 6.7 20 14.1 ENE 28 41 15 22 1008.2 1007.9 0.0
06/11:00am 31.3 24.2 6.4 21 13.4 NE 33 43 18 23 1008.2 1007.9 0.0
06/10:30am 30.3 23.3 6.2 22 12.9 ENE 32 43 17 23 1008.4 1008.1 0.0
06/10:00am 29.8 23.3 6.5 23 12.4 E 30 39 16 21 1008.7 1008.4 0.0
06/09:30am 27.7 20.7 5.9 25 11.4 E 32 43 17 23 1009.0 1008.7 0.0
06/09:00am 27.6 20.6 5.8 25 11.4 E 32 44 17 24 1009.4 1009.0 0.0
06/08:30am 26.6 19.4 6.1 27 10.7 E 33 43 18 23 1009.5 1009.1 0.0
06/08:00am 25.6 18.4 5.2 27 10.4 E 32 43 17 23 1009.1 1008.8 0.0
06/07:30am 25.1 19.6 5.8 29 9.9 ENE 24 33 13 18 1008.6 1008.3 0.0
06/07:00am 23.1 19.3 6.0 33 8.7 ENE 15 20 8 11 1008.4 1008.1 0.0
06/06:30am 19.9 17.7 7.9 46 6.2 ESE 9 11 5 6 1008.3 1008.0 0.0
06/06:00am 19.6 17.1 8.0 47 6.0 SE 11 13 6 7 1008.3 1008.0 0.0
06/05:30am 20.1 17.6 8.4 47 6.1 SE 11 11 6 6 1008.4 1008.1 0.0
06/05:00am 21.0 18.6 8.6 45 6.5 SE 11 13 6 7 1008.2 1007.9 0.0
06/04:30am 22.3 20.0 9.1 43 7.1 SE 11 13 6 7 1008.1 1007.8 0.0
06/04:00am 22.4 19.9 9.6 44 6.9 SE 13 15 7 8 1008.0 1007.7 0.0
06/03:30am 22.5 18.8 9.6 44 7.0 SSE 19 20 10 11 1007.9 1007.6 0.0
06/03:00am 22.7 19.1 9.8 44 7.0 SSE 19 22 10 12 1007.8 1007.5 0.0
06/02:30am 22.8 19.5 9.6 43 7.2 SSE 17 22 9 12 1008.2 1007.9 0.0
06/02:00am 23.5 19.9 9.9 42 7.4 SSE 19 26 10 14 1008.5 1008.2 0.0
06/01:30am 24.1 20.3 9.7 40 7.9 SSE 20 28 11 15 1009.0 1008.7 0.0
06/01:00am 24.3 20.9 9.1 38 8.2 SSE 17 22 9 12 1009.1 1008.8 0.0
06/12:30am 25.1 21.6 8.6 35 8.9 SE 17 20 9 11 1009.2 1008.9 0.0
06/12:00am 26.1 21.9 8.1 32 9.7 SSE 20 28 11 15 1009.0 1008.7 0.0
 
Date/Time
CDT
Temp
°C
App
Temp
°C
Dew
Point
°C
Rel
Hum
%
Delta-T
°C
Wind Press
QNH
hPa
Press
MSL
hPa
Rain since
9am
mm
Dir  Spd
km/h
Gust
km/h
Spd
kts
Gust
kts
05/11:30pm 27.1 23.0 8.5 31 10.1 SSE 20 28 11 15 1009.4 1009.0 0.0
05/11:00pm 28.0 23.6 8.8 30 10.6 SSE 22 28 12 15 1009.5 1009.1 0.0
05/10:30pm 28.2 24.1 8.5 29 10.8 SSE 20 28 11 15 1009.7 1009.3 0.0
05/10:00pm 28.5 23.3 8.7 29 10.9 SSE 26 35 14 19 1009.6 1009.2 0.0
05/09:30pm 28.9 23.6 8.6 28 11.2 SSE 26 33 14 18 1009.6 1009.2 0.0
05/09:00pm 29.2 23.1 8.3 27 11.5 S 30 37 16 20 1009.5 1009.1 0.0
05/08:30pm 29.5 23.8 8.5 27 11.6 SSE 28 37 15 20 1009.2 1008.9 0.0
05/08:00pm 30.0 23.4 8.4 26 11.9 S 33 43 18 23 1009.5 1009.1 0.0
05/07:30pm 30.5 23.6 8.8 26 12.1 S 35 46 19 25 1009.4 1009.0 0.0
05/07:00pm 31.4 23.6 8.4 24 12.8 SSE 39 50 21 27 1009.0 1008.7 0.0
05/06:30pm 31.3 23.4 7.7 23 13.0 S 39 50 21 27 1008.9 1008.6 0.0
05/06:00pm 32.6 23.8 8.1 22 13.6 S 44 56 24 30 1008.8 1008.5 0.0
05/05:30pm 32.3 23.0 9.2 24 13.1 S 48 65 26 35 1008.9 1008.6 0.0
05/05:00pm 32.5 23.1 8.7 23 13.4 S 48 63 26 34 1009.0 1008.7 0.0
05/04:30pm 34.3 25.1 9.5 22 14.2 S 48 59 26 32 1009.1 1008.8 0.0
05/04:00pm 34.6 25.9 9.8 22 14.3 SSW 46 63 25 34 1009.2 1008.9 0.0
05/03:30pm 35.3 27.1 10.4 22 14.6 S 44 57 24 31 1009.0 1008.7 0.0
05/03:00pm 36.3 27.8 10.5 21 15.2 SSW 46 59 25 32 1009.1 1008.8 0.0
05/02:39pm 38.5 31.1 10.0 18 16.8 SSW 39 57 21 31 1009.1 1008.8 0.0
05/02:30pm 37.5 29.9 9.2 18 16.4 SSW 39 52 21 28 1009.0 1008.7 0.0
05/02:11pm 38.2 32.1 10.5 19 16.4 SSW 33 48 18 26 1009.0 1008.7 0.0
05/02:00pm 38.8 36.2 9.4 17 17.2 S 13 28 7 15 1009.2 1008.9 0.0
05/01:30pm 37.9 34.6 4.7 13 18.0 SSE 11 22 6 12 1009.5 1009.1 0.0
05/01:00pm 37.6 33.8 5.6 14 17.5 WSW 15 22 8 12 1009.9 1009.5 0.0
05/12:30pm 37.9 35.2 5.8 14 17.7 ESE 9 17 5 9 1010.0 1009.6 0.0
05/12:00pm 36.8 34.2 5.9 15 17.0 ENE 9 20 5 11 1010.2 1009.8 0.0
05/11:30am 36.1 32.8 6.3 16 16.4 ESE 13 24 7 13 1010.4 1010.0 0.0
05/11:00am 35.2 32.3 8.1 19 15.3 SSE 13 20 7 11 1010.7 1010.3 0.0
05/10:30am 35.2 32.1 7.3 18 15.5 SSE 13 20 7 11 1011.0 1010.7 0.0
05/10:00am 33.6 30.2 7.6 20 14.4 E 15 20 8 11 1011.0 1010.7 0.0
05/09:30am 32.4 29.5 8.0 22 13.5 ENE 13 20 7 11 1010.9 1010.6 0.0
05/09:00am 30.5 27.5 9.4 27 11.9 E 15 22 8 12 1010.9 1010.6 0.0
05/08:30am 28.6 26.3 11.6 34 9.8 SE 15 19 8 10 1010.8 1010.4 0.0
05/08:00am 26.9 24.7 12.2 40 8.5 SE 15 22 8 12 1010.5 1010.1 0.0
05/07:30am 24.7 21.4 11.6 44 7.4 SSE 20 24 11 13 1010.6 1010.2 0.0
05/07:00am 24.5 22.1 11.5 44 7.4 SSE 15 20 8 11 1010.0 1009.6 0.0
05/06:30am 24.3 22.1 10.9 43 7.5 S 13 19 7 10 1010.3 1009.9 0.0
05/06:00am 24.5 21.1 10.4 41 7.8 SSE 19 26 10 14 1010.1 1009.7 0.0
05/05:30am 25.3 19.9 9.6 37 8.6 S 28 37 15 20 1010.2 1009.8 0.0
05/05:00am 24.9 20.5 10.4 40 8.1 S 24 32 13 17 1009.9 1009.5 0.0
05/04:30am 24.9 20.5 10.4 40 8.1 S 24 30 13 16 1010.1 1009.7 0.0
05/04:00am 25.2 20.6 9.5 37 8.6 SSE 24 32 13 17 1010.2 1009.8 0.0
05/03:30am 25.9 20.7 8.8 34 9.3 S 26 30 14 16 1010.3 1009.9 0.0
05/03:00am 26.9 21.0 7.4 29 10.4 S 28 35 15 19 1010.4 1010.0 0.0
05/02:30am 27.1 20.6 6.5 27 10.8 S 30 37 16 20 1010.7 1010.3 0.0
05/02:00am 27.5 20.4 6.3 26 11.1 S 33 44 18 24 1010.7 1010.3 0.0
05/01:30am 28.3 20.1 6.4 25 11.6 S 39 50 21 27 1010.9 1010.6 0.0
05/01:14am 29.0 22.6 5.1 22 12.4 SSW 28 46 15 25 1010.9 1010.6 0.0
05/01:00am 26.0 23.2 3.3 23 11.2 ESE 7 11 4 6 1010.1 1009.7 0.0
05/12:30am 28.7 27.0 2.1 18 13.1 CALM 0 0 0 0 1010.0 1009.6 0.0
05/12:00am 28.8 24.9 3.6 20 12.7 SSW 13 22 7 12 1010.2 1009.8 0.0
 
Date/Time
CDT
Temp
°C
App
Temp
°C
Dew
Point
°C
Rel
Hum
%
Delta-T
°C
Wind Press
QNH
hPa
Press
MSL
hPa
Rain since
9am
mm
Dir  Spd
km/h
Gust
km/h
Spd
kts
Gust
kts
04/11:30pm 28.2 24.6 3.1 20 12.5 WNW 11 13 6 7 1009.8 1009.4 0.0
04/11:00pm 27.9 24.8 3.6 21 12.2 NW 9 13 5 7 1009.9 1009.5 0.0
04/10:30pm 29.2 27.1 4.0 20 12.9 WNW 4 7 2 4 1009.9 1009.5 0.0
04/10:00pm 29.5 27.0 3.5 19 13.2 WNW 6 7 3 4 1009.9 1009.5 0.0
04/09:30pm 30.8 27.6 3.0 17 14.1 SSW 9 11 5 6 1009.8 1009.4 0.0
04/09:00pm 32.8 30.9 2.8 15 15.3 SE 2 6 1 3 1009.6 1009.2 0.0
04/08:30pm 33.5 30.9 3.3 15 15.6 SE 6 6 3 3 1009.4 1009.0 0.0
04/08:00pm 34.6 31.0 3.2 14 16.3 SE 11 13 6 7 1009.0 1008.7 0.0
04/07:30pm 36.5 33.2 2.5 12 17.7 SSE 9 15 5 8 1008.8 1008.5 0.0
04/07:00pm 36.8 32.8 2.8 12 17.8 SSE 13 20 7 11 1008.5 1008.2 0.0
04/06:30pm 37.1 32.5 1.8 11 18.2 SSE 15 24 8 13 1008.3 1008.0 0.0
04/06:00pm 37.1 33.9 3.0 12 18.0 SSE 9 20 5 11 1008.1 1007.8 0.0
04/05:30pm 37.4 33.8 3.2 12 18.1 ESE 11 19 6 10 1008.0 1007.7 0.0
04/05:00pm 37.3 32.6 3.1 12 18.0 SE 17 28 9 15 1008.3 1008.0 0.0
04/04:30pm 37.4 33.6 2.0 11 18.4 E 11 24 6 13 1008.7 1008.4 0.0
04/04:00pm 37.7 33.4 3.4 12 18.2 SE 15 22 8 12 1008.7 1008.4 0.0
04/03:30pm 37.5 33.6 3.3 12 18.1 SE 13 19 7 10 1009.1 1008.8 0.0
04/03:00pm 36.9 33.1 4.0 13 17.6 ENE 13 24 7 13 1009.7 1009.3 0.0
04/02:30pm 37.1 32.6 4.1 13 17.7 E 17 24 9 13 1010.0 1009.6 0.0
04/02:00pm 36.9 32.7 4.0 13 17.5 ENE 15 20 8 11 1010.5 1010.1 0.0
04/01:30pm 36.9 33.5 4.0 13 17.6 ESE 11 32 6 17 1011.0 1010.7 0.0
04/01:00pm 35.3 31.9 5.7 16 16.1 E 13 17 7 9 1011.4 1011.1 0.0
04/12:30pm 35.8 33.8 6.1 16 16.3 NW 6 11 3 6 1011.8 1011.5 0.0
04/12:00pm 34.9 32.7 6.2 17 15.7 NNE 7 15 4 8 1012.2 1011.9 0.0
04/11:30am 34.8 31.6 7.0 18 15.4 NNE 13 24 7 13 1012.5 1012.2 0.0
04/11:00am 33.7 29.4 6.9 19 14.7 NNE 19 26 10 14 1012.7 1012.4 0.0
04/10:30am 33.1 28.6 7.1 20 14.3 NNE 20 30 11 16 1012.9 1012.6 0.0
04/10:00am 32.2 27.3 7.1 21 13.7 NNE 22 30 12 16 1013.0 1012.7 0.0
04/09:30am 31.3 25.3 7.1 22 13.2 NE 28 32 15 17 1013.0 1012.7 0.0
04/09:00am 30.2 24.1 6.8 23 12.6 NE 28 35 15 19 1013.0 1012.7 0.0
04/08:30am 28.9 23.1 6.3 24 12.0 NE 26 33 14 18 1012.8 1012.5 0.0
04/08:00am 27.8 23.4 6.6 26 11.2 ENE 19 24 10 13 1012.7 1012.4 0.0
04/07:30am 24.7 21.9 6.9 32 9.3 ESE 11 17 6 9 1012.3 1012.0 0.0
04/07:00am 22.1 19.2 6.3 36 8.0 SSE 11 15 6 8 1012.0 1011.7 0.0
04/06:30am 20.4 17.0 6.0 39 7.2 SSE 13 15 7 8 1011.6 1011.3 0.0
04/06:00am 20.4 16.9 5.6 38 7.3 SSE 13 17 7 9 1011.3 1011.0 0.0
04/05:30am 21.0 17.6 5.8 37 7.6 SSE 13 15 7 8 1011.1 1010.8 0.0
04/05:00am 21.5 17.3 5.8 36 7.9 SSE 17 19 9 10 1010.8 1010.4 0.0
04/04:30am 22.1 18.7 5.9 35 8.2 SE 13 17 7 9 1010.6 1010.2 0.0
04/04:00am 22.1 17.9 5.5 34 8.3 SE 17 20 9 11 1010.5 1010.1 0.0
04/03:30am 22.7 20.4 5.6 33 8.6 SE 7 9 4 5 1010.7 1010.3 0.0
04/03:00am 23.3 19.9 6.1 33 8.8 SE 13 15 7 8 1010.7 1010.3 0.0
04/02:30am 23.5 20.2 6.3 33 8.8 SSE 13 13 7 7 1010.8 1010.4 0.0
04/02:00am 23.7 19.9 6.0 32 9.0 SSE 15 17 8 9 1010.9 1010.6 0.0
04/01:30am 24.2 20.8 6.0 31 9.3 SE 13 13 7 7 1011.0 1010.7 0.0
04/01:00am 24.6 21.6 5.9 30 9.6 SE 11 13 6 7 1011.2 1010.9 0.0
04/12:30am 26.5 23.5 6.0 27 10.7 SE 11 15 6 8 1011.3 1011.0 0.0
04/12:00am 28.9 26.2 5.7 23 12.2 E 9 15 5 8 1011.4 1011.1 0.0
 
Date/Time
CDT
Temp
°C
App
Temp
°C
Dew
Point
°C
Rel
Hum
%
Delta-T
°C
Wind Press
QNH
hPa
Press
MSL
hPa
Rain since
9am
mm
Dir  Spd
km/h
Gust
km/h
Spd
kts
Gust
kts
03/11:30pm 29.4 25.0 4.8 21 12.7 SE 17 24 9 13 1011.5 1011.2 0.0
03/11:00pm 27.5 24.7 5.1 24 11.5 ESE 9 11 5 6 1011.2 1010.9 0.0
03/10:30pm 28.4 26.0 5.3 23 12.0 E 7 9 4 5 1011.0 1010.7 0.0
03/10:00pm 29.1 26.7 5.2 22 12.4 SSE 7 9 4 5 1010.8 1010.4 0.0
03/09:30pm 29.7 27.3 5.1 21 12.8 SE 7 9 4 5 1010.4 1010.0 0.0
03/09:00pm 30.2 27.3 4.8 20 13.2 SSE 9 9 5 5 1010.3 1009.9 0.0
03/08:30pm 31.8 28.9 4.6 18 14.2 SSE 9 9 5 5 1010.0 1009.6 0.0
03/08:00pm 33.1 30.2 4.8 17 15.0 SSE 9 13 5 7 1009.6 1009.2 0.0
03/07:30pm 34.5 30.7 4.1 15 16.0 S 13 17 7 9 1009.4 1009.0 0.0
03/07:00pm 35.2 31.9 4.7 15 16.3 SSE 11 17 6 9 1009.0 1008.7 0.0
03/06:30pm 35.6 32.0 5.0 15 16.5 SE 13 20 7 11 1008.7 1008.4 0.0
03/06:00pm 35.7 31.9 4.1 14 16.8 SSW 13 20 7 11 1008.6 1008.3 0.0
03/05:30pm 35.8 32.1 4.2 14 16.8 SSE 13 22 7 12 1008.7 1008.4 0.0

Other formats

Comma delimited format used in spreadsheet applications
http://www.bom.gov.au/fwo/IDS60801/IDS60801.95480.axf

JavaScript Object Notation format (JSON) in row-major order
http://www.bom.gov.au/fwo/IDS60801/IDS60801.95480.json

Data quality

Most of these data are generated automatically and are frequently updated. Quality checks on data are not normally performed. It is possible for incorrect values to appear. Refer to information at About Latest Weather Observations and please check the disclaimer before using these data.